sensor_id;sensor_type;location;lat;lon;timestamp;temperature;humidity
17948;DHT22;9099;47.958;11.366;2022-09-03T00:00:53;15.90;99.90
17948;DHT22;9099;47.958;11.366;2022-09-03T00:03:25;15.90;99.90
17948;DHT22;9099;47.958;11.366;2022-09-03T00:06:09;16.00;99.90
17948;DHT22;9099;47.958;11.366;2022-09-03T00:08:43;16.00;99.90
17948;DHT22;9099;47.958;11.366;2022-09-03T00:11:17;16.00;99.90
17948;DHT22;9099;47.958;11.366;2022-09-03T00:13:50;16.00;99.90
17948;DHT22;9099;47.958;11.366;2022-09-03T00:16:21;16.00;99.90
17948;DHT22;9099;47.958;11.366;2022-09-03T00:18:52;15.90;99.90
17948;DHT22;9099;47.958;11.366;2022-09-03T00:21:33;15.90;99.90
17948;DHT22;9099;47.958;11.366;2022-09-03T00:24:03;15.80;99.90
17948;DHT22;9099;47.958;11.366;2022-09-03T00:26:33;15.80;99.90
17948;DHT22;9099;47.958;11.366;2022-09-03T00:29:04;15.80;99.90
17948;DHT22;9099;47.958;11.366;2022-09-03T00:31:35;15.70;99.90
17948;DHT22;9099;47.958;11.366;2022-09-03T00:34:08;15.70;99.90
17948;DHT22;9099;47.958;11.366;2022-09-03T00:36:40;15.80;99.90
17948;DHT22;9099;47.958;11.366;2022-09-03T00:39:09;15.80;99.90
17948;DHT22;9099;47.958;11.366;2022-09-03T00:41:43;15.80;99.90
17948;DHT22;9099;47.958;11.366;2022-09-03T00:44:27;15.80;99.90
17948;DHT22;9099;47.958;11.366;2022-09-03T00:47:01;15.60;99.90
17948;DHT22;9099;47.958;11.366;2022-09-03T00:49:42;15.50;99.90
17948;DHT22;9099;47.958;11.366;2022-09-03T00:52:21;15.50;99.90
17948;DHT22;9099;47.958;11.366;2022-09-03T00:54:58;15.50;99.90
17948;DHT22;9099;47.958;11.366;2022-09-03T00:57:35;15.50;99.90
17948;DHT22;9099;47.958;11.366;2022-09-03T01:00:07;15.40;99.90
17948;DHT22;9099;47.958;11.366;2022-09-03T01:02:46;15.40;99.90
17948;DHT22;9099;47.958;11.366;2022-09-03T01:05:29;15.40;99.90
17948;DHT22;9099;47.958;11.366;2022-09-03T01:08:09;15.40;99.90
17948;DHT22;9099;47.958;11.366;2022-09-03T01:10:45;15.40;99.90
17948;DHT22;9099;47.958;11.366;2022-09-03T01:13:20;15.30;99.90
17948;DHT22;9099;47.958;11.366;2022-09-03T01:15:55;15.30;99.90
17948;DHT22;9099;47.958;11.366;2022-09-03T01:18:29;15.30;99.90
17948;DHT22;9099;47.958;11.366;2022-09-03T01:21:16;15.30;99.90
17948;DHT22;9099;47.958;11.366;2022-09-03T01:24:24;15.20;99.90
17948;DHT22;9099;47.958;11.366;2022-09-03T01:27:17;15.20;99.90
17948;DHT22;9099;47.958;11.366;2022-09-03T01:29:54;15.20;99.90
17948;DHT22;9099;47.958;11.366;2022-09-03T01:32:26;15.30;99.90
17948;DHT22;9099;47.958;11.366;2022-09-03T01:35:02;15.30;99.90
17948;DHT22;9099;47.958;11.366;2022-09-03T01:37:43;15.20;99.90
17948;DHT22;9099;47.958;11.366;2022-09-03T01:40:18;15.30;99.90
17948;DHT22;9099;47.958;11.366;2022-09-03T01:42:58;15.20;99.90
17948;DHT22;9099;47.958;11.366;2022-09-03T01:45:38;15.20;99.90
17948;DHT22;9099;47.958;11.366;2022-09-03T01:48:21;15.30;99.90
17948;DHT22;9099;47.958;11.366;2022-09-03T01:50:57;15.30;99.90
17948;DHT22;9099;47.958;11.366;2022-09-03T01:53:44;15.30;99.90
17948;DHT22;9099;47.958;11.366;2022-09-03T01:56:26;15.30;99.90
17948;DHT22;9099;47.958;11.366;2022-09-03T01:58:59;15.40;99.90
17948;DHT22;9099;47.958;11.366;2022-09-03T02:01:32;15.40;99.90
17948;DHT22;9099;47.958;11.366;2022-09-03T02:04:01;15.40;99.90
17948;DHT22;9099;47.958;11.366;2022-09-03T02:06:29;15.40;99.90
17948;DHT22;9099;47.958;11.366;2022-09-03T02:08:57;15.30;99.90
17948;DHT22;9099;47.958;11.366;2022-09-03T02:11:24;15.20;99.90
17948;DHT22;9099;47.958;11.366;2022-09-03T02:13:53;15.10;99.90
17948;DHT22;9099;47.958;11.366;2022-09-03T02:16:26;15.10;99.90
17948;DHT22;9099;47.958;11.366;2022-09-03T02:18:57;15.10;99.90
17948;DHT22;9099;47.958;11.366;2022-09-03T02:21:27;15.20;99.90
17948;DHT22;9099;47.958;11.366;2022-09-03T02:23:56;15.20;99.90
17948;DHT22;9099;47.958;11.366;2022-09-03T02:26:23;15.20;99.90
17948;DHT22;9099;47.958;11.366;2022-09-03T02:28:52;15.20;99.90
17948;DHT22;9099;47.958;11.366;2022-09-03T02:31:19;15.10;99.90
17948;DHT22;9099;47.958;11.366;2022-09-03T02:33:47;15.10;99.90
17948;DHT22;9099;47.958;11.366;2022-09-03T02:36:19;15.10;99.90
17948;DHT22;9099;47.958;11.366;2022-09-03T02:38:47;15.10;99.90
17948;DHT22;9099;47.958;11.366;2022-09-03T02:41:13;15.00;99.90
17948;DHT22;9099;47.958;11.366;2022-09-03T02:43:44;14.90;99.90
17948;DHT22;9099;47.958;11.366;2022-09-03T02:46:15;14.90;99.90
17948;DHT22;9099;47.958;11.366;2022-09-03T02:48:42;14.90;99.90
17948;DHT22;9099;47.958;11.366;2022-09-03T02:51:09;14.80;99.90
17948;DHT22;9099;47.958;11.366;2022-09-03T02:53:38;14.70;99.90
17948;DHT22;9099;47.958;11.366;2022-09-03T02:56:05;14.50;99.90
17948;DHT22;9099;47.958;11.366;2022-09-03T02:58:32;14.40;99.90
17948;DHT22;9099;47.958;11.366;2022-09-03T03:00:59;14.40;99.90
17948;DHT22;9099;47.958;11.366;2022-09-03T03:03:26;14.40;99.90
17948;DHT22;9099;47.958;11.366;2022-09-03T03:05:55;14.40;99.90
17948;DHT22;9099;47.958;11.366;2022-09-03T03:08:24;14.50;99.90
17948;DHT22;9099;47.958;11.366;2022-09-03T03:10:55;14.50;99.90
17948;DHT22;9099;47.958;11.366;2022-09-03T03:13:23;14.50;99.90
17948;DHT22;9099;47.958;11.366;2022-09-03T03:15:50;14.50;99.90
17948;DHT22;9099;47.958;11.366;2022-09-03T03:18:16;14.50;99.90
17948;DHT22;9099;47.958;11.366;2022-09-03T03:20:44;14.40;99.90
17948;DHT22;9099;47.958;11.366;2022-09-03T03:23:12;14.20;99.90
17948;DHT22;9099;47.958;11.366;2022-09-03T03:25:39;14.10;99.90
17948;DHT22;9099;47.958;11.366;2022-09-03T03:28:08;14.10;99.90
17948;DHT22;9099;47.958;11.366;2022-09-03T03:30:36;14.10;99.90
17948;DHT22;9099;47.958;11.366;2022-09-03T03:33:04;14.10;99.90
17948;DHT22;9099;47.958;11.366;2022-09-03T03:35:31;14.20;99.90
17948;DHT22;9099;47.958;11.366;2022-09-03T03:37:58;14.20;99.90
17948;DHT22;9099;47.958;11.366;2022-09-03T03:40:25;14.10;99.90
17948;DHT22;9099;47.958;11.366;2022-09-03T03:42:52;14.10;99.90
17948;DHT22;9099;47.958;11.366;2022-09-03T03:45:21;14.00;99.90
17948;DHT22;9099;47.958;11.366;2022-09-03T03:47:47;13.90;99.90
17948;DHT22;9099;47.958;11.366;2022-09-03T03:50:14;13.90;99.90
17948;DHT22;9099;47.958;11.366;2022-09-03T03:52:42;13.90;99.90
17948;DHT22;9099;47.958;11.366;2022-09-03T03:55:09;13.90;99.90
17948;DHT22;9099;47.958;11.366;2022-09-03T03:57:36;13.90;99.90
17948;DHT22;9099;47.958;11.366;2022-09-03T04:00:04;13.80;99.90
17948;DHT22;9099;47.958;11.366;2022-09-03T04:02:32;13.80;99.90
17948;DHT22;9099;47.958;11.366;2022-09-03T04:04:59;13.70;99.90
17948;DHT22;9099;47.958;11.366;2022-09-03T04:07:26;13.70;99.90
17948;DHT22;9099;47.958;11.366;2022-09-03T04:09:53;13.70;99.90
17948;DHT22;9099;47.958;11.366;2022-09-03T04:12:20;13.60;99.90
17948;DHT22;9099;47.958;11.366;2022-09-03T04:14:46;13.70;99.90
17948;DHT22;9099;47.958;11.366;2022-09-03T04:17:13;13.80;99.90
17948;DHT22;9099;47.958;11.366;2022-09-03T04:19:41;13.80;99.90
17948;DHT22;9099;47.958;11.366;2022-09-03T04:22:10;13.90;99.90
17948;DHT22;9099;47.958;11.366;2022-09-03T04:24:40;14.00;99.90
17948;DHT22;9099;47.958;11.366;2022-09-03T04:27:07;14.10;99.90
17948;DHT22;9099;47.958;11.366;2022-09-03T04:29:34;14.20;99.90
17948;DHT22;9099;47.958;11.366;2022-09-03T04:32:01;14.30;99.90
17948;DHT22;9099;47.958;11.366;2022-09-03T04:34:47;14.30;99.90
17948;DHT22;9099;47.958;11.366;2022-09-03T04:37:14;14.40;99.90
17948;DHT22;9099;47.958;11.366;2022-09-03T04:39:41;14.50;99.90
17948;DHT22;9099;47.958;11.366;2022-09-03T04:42:07;14.50;99.90
17948;DHT22;9099;47.958;11.366;2022-09-03T04:44:34;14.70;99.90
17948;DHT22;9099;47.958;11.366;2022-09-03T04:47:03;14.80;99.90
17948;DHT22;9099;47.958;11.366;2022-09-03T04:49:30;14.80;99.90
17948;DHT22;9099;47.958;11.366;2022-09-03T04:51:58;14.80;99.90
17948;DHT22;9099;47.958;11.366;2022-09-03T04:54:25;14.90;99.90
17948;DHT22;9099;47.958;11.366;2022-09-03T04:56:52;15.00;99.90
17948;DHT22;9099;47.958;11.366;2022-09-03T04:59:19;14.90;99.90
17948;DHT22;9099;47.958;11.366;2022-09-03T05:01:46;14.90;99.90
17948;DHT22;9099;47.958;11.366;2022-09-03T05:04:13;14.90;99.90
17948;DHT22;9099;47.958;11.366;2022-09-03T05:06:40;14.90;99.90
17948;DHT22;9099;47.958;11.366;2022-09-03T05:09:09;14.90;99.90
17948;DHT22;9099;47.958;11.366;2022-09-03T05:11:36;14.90;99.90
17948;DHT22;9099;47.958;11.366;2022-09-03T05:14:03;15.00;99.90
17948;DHT22;9099;47.958;11.366;2022-09-03T05:16:30;15.00;99.90
17948;DHT22;9099;47.958;11.366;2022-09-03T05:18:58;15.10;99.90
17948;DHT22;9099;47.958;11.366;2022-09-03T05:21:26;15.30;99.90
17948;DHT22;9099;47.958;11.366;2022-09-03T05:23:53;15.60;99.90
17948;DHT22;9099;47.958;11.366;2022-09-03T05:26:22;15.90;99.90
17948;DHT22;9099;47.958;11.366;2022-09-03T05:28:53;16.20;99.90
17948;DHT22;9099;47.958;11.366;2022-09-03T05:31:22;16.50;99.90
17948;DHT22;9099;47.958;11.366;2022-09-03T05:33:52;16.50;99.90
17948;DHT22;9099;47.958;11.366;2022-09-03T05:36:20;16.70;99.90
17948;DHT22;9099;47.958;11.366;2022-09-03T05:38:48;16.90;99.90
17948;DHT22;9099;47.958;11.366;2022-09-03T05:41:16;17.00;99.90
17948;DHT22;9099;47.958;11.366;2022-09-03T05:43:46;17.00;99.90
17948;DHT22;9099;47.958;11.366;2022-09-03T05:46:16;17.00;99.90
17948;DHT22;9099;47.958;11.366;2022-09-03T05:48:44;17.10;99.90
17948;DHT22;9099;47.958;11.366;2022-09-03T05:51:13;17.20;99.90
17948;DHT22;9099;47.958;11.366;2022-09-03T05:53:41;17.20;99.90
17948;DHT22;9099;47.958;11.366;2022-09-03T05:56:10;17.20;99.90
17948;DHT22;9099;47.958;11.366;2022-09-03T05:58:39;17.10;99.90
17948;DHT22;9099;47.958;11.366;2022-09-03T06:01:11;17.20;99.90
17948;DHT22;9099;47.958;11.366;2022-09-03T06:03:38;17.40;99.90
17948;DHT22;9099;47.958;11.366;2022-09-03T06:06:06;18.00;99.90
17948;DHT22;9099;47.958;11.366;2022-09-03T06:08:33;18.30;99.90
17948;DHT22;9099;47.958;11.366;2022-09-03T06:11:00;18.30;99.90
17948;DHT22;9099;47.958;11.366;2022-09-03T06:13:28;18.40;99.90
17948;DHT22;9099;47.958;11.366;2022-09-03T06:15:56;18.20;99.90
17948;DHT22;9099;47.958;11.366;2022-09-03T06:18:24;18.00;99.90
17948;DHT22;9099;47.958;11.366;2022-09-03T06:20:54;17.90;99.90
17948;DHT22;9099;47.958;11.366;2022-09-03T06:23:21;17.90;99.90
17948;DHT22;9099;47.958;11.366;2022-09-03T06:25:58;17.70;99.90
17948;DHT22;9099;47.958;11.366;2022-09-03T06:28:25;17.60;99.90
17948;DHT22;9099;47.958;11.366;2022-09-03T06:30:52;17.50;99.90
17948;DHT22;9099;47.958;11.366;2022-09-03T06:33:20;17.40;99.90
17948;DHT22;9099;47.958;11.366;2022-09-03T06:35:53;17.40;99.90
17948;DHT22;9099;47.958;11.366;2022-09-03T06:38:24;17.50;99.90
17948;DHT22;9099;47.958;11.366;2022-09-03T06:40:52;17.40;99.90
17948;DHT22;9099;47.958;11.366;2022-09-03T06:43:20;17.20;99.90
17948;DHT22;9099;47.958;11.366;2022-09-03T06:45:58;17.30;99.90
17948;DHT22;9099;47.958;11.366;2022-09-03T06:48:26;17.40;99.90
17948;DHT22;9099;47.958;11.366;2022-09-03T06:50:56;17.40;99.90
17948;DHT22;9099;47.958;11.366;2022-09-03T06:53:24;17.40;99.90
17948;DHT22;9099;47.958;11.366;2022-09-03T06:55:55;17.50;99.90
17948;DHT22;9099;47.958;11.366;2022-09-03T06:58:23;17.50;99.90
17948;DHT22;9099;47.958;11.366;2022-09-03T07:00:50;17.30;99.90
17948;DHT22;9099;47.958;11.366;2022-09-03T07:03:19;17.30;99.90
17948;DHT22;9099;47.958;11.366;2022-09-03T07:05:46;17.30;99.90
17948;DHT22;9099;47.958;11.366;2022-09-03T07:08:14;17.30;99.90
17948;DHT22;9099;47.958;11.366;2022-09-03T07:10:45;17.30;99.90
17948;DHT22;9099;47.958;11.366;2022-09-03T07:13:12;17.30;99.90
17948;DHT22;9099;47.958;11.366;2022-09-03T07:15:39;17.30;99.90
17948;DHT22;9099;47.958;11.366;2022-09-03T07:18:06;17.30;99.90
17948;DHT22;9099;47.958;11.366;2022-09-03T07:20:33;17.40;99.90
17948;DHT22;9099;47.958;11.366;2022-09-03T07:23:00;17.40;99.90
17948;DHT22;9099;47.958;11.366;2022-09-03T07:25:29;17.40;99.90
17948;DHT22;9099;47.958;11.366;2022-09-03T07:27:56;17.40;99.90
17948;DHT22;9099;47.958;11.366;2022-09-03T07:30:24;17.40;99.90
17948;DHT22;9099;47.958;11.366;2022-09-03T07:32:51;17.50;99.90
17948;DHT22;9099;47.958;11.366;2022-09-03T07:35:18;17.50;99.90
17948;DHT22;9099;47.958;11.366;2022-09-03T07:37:45;17.50;99.90
17948;DHT22;9099;47.958;11.366;2022-09-03T07:40:12;17.30;99.90
17948;DHT22;9099;47.958;11.366;2022-09-03T07:42:41;17.40;99.90
17948;DHT22;9099;47.958;11.366;2022-09-03T07:45:09;17.50;99.90
17948;DHT22;9099;47.958;11.366;2022-09-03T07:47:37;17.60;99.90
17948;DHT22;9099;47.958;11.366;2022-09-03T07:50:11;17.80;99.90
17948;DHT22;9099;47.958;11.366;2022-09-03T07:52:38;17.90;99.90
17948;DHT22;9099;47.958;11.366;2022-09-03T07:55:06;18.00;99.90
17948;DHT22;9099;47.958;11.366;2022-09-03T07:57:33;18.10;99.90
17948;DHT22;9099;47.958;11.366;2022-09-03T08:00:02;18.30;99.90
17948;DHT22;9099;47.958;11.366;2022-09-03T08:02:32;18.20;99.90
17948;DHT22;9099;47.958;11.366;2022-09-03T08:04:58;18.10;99.90
17948;DHT22;9099;47.958;11.366;2022-09-03T08:07:27;18.20;99.90
17948;DHT22;9099;47.958;11.366;2022-09-03T08:09:54;18.30;99.90
17948;DHT22;9099;47.958;11.366;2022-09-03T08:12:21;18.40;99.90
17948;DHT22;9099;47.958;11.366;2022-09-03T08:14:48;18.30;99.90
17948;DHT22;9099;47.958;11.366;2022-09-03T08:17:17;18.20;99.90
17948;DHT22;9099;47.958;11.366;2022-09-03T08:19:44;18.30;99.90
17948;DHT22;9099;47.958;11.366;2022-09-03T08:22:11;18.40;99.90
17948;DHT22;9099;47.958;11.366;2022-09-03T08:24:38;18.60;99.90
17948;DHT22;9099;47.958;11.366;2022-09-03T08:27:06;18.80;99.90
17948;DHT22;9099;47.958;11.366;2022-09-03T08:29:32;18.90;99.90
17948;DHT22;9099;47.958;11.366;2022-09-03T08:31:59;19.10;99.90
17948;DHT22;9099;47.958;11.366;2022-09-03T08:34:27;19.40;99.90
17948;DHT22;9099;47.958;11.366;2022-09-03T08:36:54;20.00;99.90
17948;DHT22;9099;47.958;11.366;2022-09-03T08:39:21;20.50;99.90
17948;DHT22;9099;47.958;11.366;2022-09-03T08:42:02;20.80;99.90
17948;DHT22;9099;47.958;11.366;2022-09-03T08:44:39;21.30;99.90
17948;DHT22;9099;47.958;11.366;2022-09-03T08:47:15;21.60;99.90
17948;DHT22;9099;47.958;11.366;2022-09-03T08:49:47;22.50;99.90
17948;DHT22;9099;47.958;11.366;2022-09-03T08:52:23;24.10;99.90
17948;DHT22;9099;47.958;11.366;2022-09-03T08:54:57;25.30;99.90
17948;DHT22;9099;47.958;11.366;2022-09-03T08:57:25;25.70;99.90
17948;DHT22;9099;47.958;11.366;2022-09-03T08:59:54;25.30;99.90
17948;DHT22;9099;47.958;11.366;2022-09-03T09:02:25;24.70;99.90
17948;DHT22;9099;47.958;11.366;2022-09-03T09:05:04;24.60;99.90
17948;DHT22;9099;47.958;11.366;2022-09-03T09:07:40;24.90;99.90
17948;DHT22;9099;47.958;11.366;2022-09-03T09:10:11;24.90;99.90
17948;DHT22;9099;47.958;11.366;2022-09-03T09:12:45;25.10;99.90
17948;DHT22;9099;47.958;11.366;2022-09-03T09:15:22;25.30;99.90
17948;DHT22;9099;47.958;11.366;2022-09-03T09:18:02;25.90;99.90
17948;DHT22;9099;47.958;11.366;2022-09-03T09:20:38;26.50;99.90
17948;DHT22;9099;47.958;11.366;2022-09-03T09:23:11;26.80;99.90
17948;DHT22;9099;47.958;11.366;2022-09-03T09:25:44;27.30;99.90
17948;DHT22;9099;47.958;11.366;2022-09-03T09:28:16;27.30;99.90
17948;DHT22;9099;47.958;11.366;2022-09-03T09:30:45;27.10;99.90
17948;DHT22;9099;47.958;11.366;2022-09-03T09:33:13;26.90;99.90
17948;DHT22;9099;47.958;11.366;2022-09-03T09:35:41;26.90;99.90
17948;DHT22;9099;47.958;11.366;2022-09-03T09:38:09;26.80;99.90
17948;DHT22;9099;47.958;11.366;2022-09-03T09:40:38;26.80;99.90
17948;DHT22;9099;47.958;11.366;2022-09-03T09:43:08;27.10;99.90
17948;DHT22;9099;47.958;11.366;2022-09-03T09:45:37;26.90;99.90
17948;DHT22;9099;47.958;11.366;2022-09-03T09:48:09;26.60;99.90
17948;DHT22;9099;47.958;11.366;2022-09-03T09:50:40;26.30;99.90
17948;DHT22;9099;47.958;11.366;2022-09-03T09:53:09;26.20;99.90
17948;DHT22;9099;47.958;11.366;2022-09-03T09:55:51;26.00;99.90
17948;DHT22;9099;47.958;11.366;2022-09-03T09:58:20;26.30;99.90
17948;DHT22;9099;47.958;11.366;2022-09-03T10:01:10;26.90;99.90
17948;DHT22;9099;47.958;11.366;2022-09-03T10:03:46;27.70;99.90
17948;DHT22;9099;47.958;11.366;2022-09-03T10:06:15;27.90;99.90
17948;DHT22;9099;47.958;11.366;2022-09-03T10:09:07;28.20;99.90
17948;DHT22;9099;47.958;11.366;2022-09-03T10:11:37;27.90;99.90
17948;DHT22;9099;47.958;11.366;2022-09-03T10:14:12;27.90;99.90
17948;DHT22;9099;47.958;11.366;2022-09-03T10:16:46;27.90;99.90
17948;DHT22;9099;47.958;11.366;2022-09-03T10:19:19;28.00;99.90
17948;DHT22;9099;47.958;11.366;2022-09-03T10:21:56;28.10;99.90
17948;DHT22;9099;47.958;11.366;2022-09-03T10:24:47;28.10;99.90
17948;DHT22;9099;47.958;11.366;2022-09-03T10:27:17;28.60;99.90
17948;DHT22;9099;47.958;11.366;2022-09-03T10:29:45;28.90;99.90
17948;DHT22;9099;47.958;11.366;2022-09-03T10:35:02;28.30;99.90
17948;DHT22;9099;47.958;11.366;2022-09-03T10:37:38;28.80;99.90
17948;DHT22;9099;47.958;11.366;2022-09-03T10:40:21;29.40;99.90
17948;DHT22;9099;47.958;11.366;2022-09-03T10:43:03;29.90;99.90
17948;DHT22;9099;47.958;11.366;2022-09-03T10:45:36;30.00;99.90
17948;DHT22;9099;47.958;11.366;2022-09-03T10:48:34;30.50;99.90
17948;DHT22;9099;47.958;11.366;2022-09-03T10:51:05;30.90;99.90
17948;DHT22;9099;47.958;11.366;2022-09-03T10:56:31;30.00;99.90
17948;DHT22;9099;47.958;11.366;2022-09-03T10:59:09;29.70;99.90
17948;DHT22;9099;47.958;11.366;2022-09-03T11:01:51;29.50;99.90
17948;DHT22;9099;47.958;11.366;2022-09-03T11:04:27;29.40;99.90
17948;DHT22;9099;47.958;11.366;2022-09-03T11:07:00;28.80;99.90
17948;DHT22;9099;47.958;11.366;2022-09-03T11:09:35;28.40;99.90
17948;DHT22;9099;47.958;11.366;2022-09-03T11:12:07;28.10;99.90
17948;DHT22;9099;47.958;11.366;2022-09-03T11:14:39;28.00;99.90
17948;DHT22;9099;47.958;11.366;2022-09-03T11:17:11;28.20;99.90
17948;DHT22;9099;47.958;11.366;2022-09-03T11:19:44;28.40;99.90
17948;DHT22;9099;47.958;11.366;2022-09-03T11:22:15;29.00;99.90
17948;DHT22;9099;47.958;11.366;2022-09-03T11:24:50;29.60;99.90
17948;DHT22;9099;47.958;11.366;2022-09-03T11:27:29;29.90;99.90
17948;DHT22;9099;47.958;11.366;2022-09-03T11:30:00;29.90;99.90
17948;DHT22;9099;47.958;11.366;2022-09-03T11:32:39;29.90;99.90
17948;DHT22;9099;47.958;11.366;2022-09-03T11:35:14;29.90;99.90
17948;DHT22;9099;47.958;11.366;2022-09-03T11:37:51;30.20;99.90
17948;DHT22;9099;47.958;11.366;2022-09-03T11:40:20;30.30;99.90
17948;DHT22;9099;47.958;11.366;2022-09-03T11:43:05;30.50;99.90
17948;DHT22;9099;47.958;11.366;2022-09-03T11:45:36;30.60;99.90
17948;DHT22;9099;47.958;11.366;2022-09-03T11:48:27;30.20;99.90
17948;DHT22;9099;47.958;11.366;2022-09-03T11:50:59;29.70;99.90
17948;DHT22;9099;47.958;11.366;2022-09-03T11:53:32;30.20;99.90
17948;DHT22;9099;47.958;11.366;2022-09-03T11:56:15;30.50;99.90
17948;DHT22;9099;47.958;11.366;2022-09-03T11:58:43;30.20;99.90
17948;DHT22;9099;47.958;11.366;2022-09-03T12:01:12;30.00;99.90
17948;DHT22;9099;47.958;11.366;2022-09-03T12:03:43;29.60;99.90
17948;DHT22;9099;47.958;11.366;2022-09-03T12:06:34;29.30;99.90
17948;DHT22;9099;47.958;11.366;2022-09-03T12:09:24;28.70;99.90
17948;DHT22;9099;47.958;11.366;2022-09-03T12:12:11;28.80;99.90
17948;DHT22;9099;47.958;11.366;2022-09-03T12:14:47;29.30;99.90
17948;DHT22;9099;47.958;11.366;2022-09-03T12:17:27;28.90;99.90
17948;DHT22;9099;47.958;11.366;2022-09-03T12:19:56;28.80;99.90
17948;DHT22;9099;47.958;11.366;2022-09-03T12:22:26;29.30;99.90
17948;DHT22;9099;47.958;11.366;2022-09-03T12:24:54;29.90;99.90
17948;DHT22;9099;47.958;11.366;2022-09-03T12:27:24;30.60;99.90
17948;DHT22;9099;47.958;11.366;2022-09-03T12:29:54;31.00;99.90
17948;DHT22;9099;47.958;11.366;2022-09-03T12:32:25;31.50;99.90
17948;DHT22;9099;47.958;11.366;2022-09-03T12:34:53;31.40;99.90
17948;DHT22;9099;47.958;11.366;2022-09-03T12:37:22;31.50;99.40
17948;DHT22;9099;47.958;11.366;2022-09-03T12:39:50;31.10;98.60
17948;DHT22;9099;47.958;11.366;2022-09-03T12:42:22;30.70;99.30
17948;DHT22;9099;47.958;11.366;2022-09-03T12:44:50;30.50;97.60
17948;DHT22;9099;47.958;11.366;2022-09-03T12:47:19;30.30;98.70
17948;DHT22;9099;47.958;11.366;2022-09-03T12:49:47;30.80;99.60
17948;DHT22;9099;47.958;11.366;2022-09-03T12:52:19;31.10;99.30
17948;DHT22;9099;47.958;11.366;2022-09-03T12:54:50;30.70;99.00
17948;DHT22;9099;47.958;11.366;2022-09-03T12:57:22;30.70;98.60
17948;DHT22;9099;47.958;11.366;2022-09-03T12:59:53;30.40;99.90
17948;DHT22;9099;47.958;11.366;2022-09-03T13:02:26;30.20;99.70
17948;DHT22;9099;47.958;11.366;2022-09-03T13:04:53;30.30;98.20
17948;DHT22;9099;47.958;11.366;2022-09-03T13:07:24;30.10;97.50
17948;DHT22;9099;47.958;11.366;2022-09-03T13:09:59;30.00;99.90
17948;DHT22;9099;47.958;11.366;2022-09-03T13:12:32;30.60;99.90
17948;DHT22;9099;47.958;11.366;2022-09-03T13:15:05;30.30;99.90
17948;DHT22;9099;47.958;11.366;2022-09-03T13:20:32;30.10;99.30
17948;DHT22;9099;47.958;11.366;2022-09-03T13:23:28;29.80;99.30
17948;DHT22;9099;47.958;11.366;2022-09-03T13:26:07;29.40;99.60
17948;DHT22;9099;47.958;11.366;2022-09-03T13:28:54;29.10;99.90
17948;DHT22;9099;47.958;11.366;2022-09-03T13:31:30;28.80;99.90
17948;DHT22;9099;47.958;11.366;2022-09-03T13:34:03;28.40;99.90
17948;DHT22;9099;47.958;11.366;2022-09-03T13:36:36;27.90;99.90
17948;DHT22;9099;47.958;11.366;2022-09-03T13:39:09;27.50;99.90
17948;DHT22;9099;47.958;11.366;2022-09-03T13:41:47;27.30;99.90
17948;DHT22;9099;47.958;11.366;2022-09-03T13:44:19;27.00;99.90
17948;DHT22;9099;47.958;11.366;2022-09-03T13:46:52;26.60;99.90
17948;DHT22;9099;47.958;11.366;2022-09-03T13:49:29;26.40;99.90
17948;DHT22;9099;47.958;11.366;2022-09-03T13:52:23;26.10;99.90
17948;DHT22;9099;47.958;11.366;2022-09-03T13:54:56;25.80;99.90
17948;DHT22;9099;47.958;11.366;2022-09-03T13:57:32;25.50;99.90
17948;DHT22;9099;47.958;11.366;2022-09-03T14:00:04;25.10;99.90
17948;DHT22;9099;47.958;11.366;2022-09-03T14:02:48;24.90;99.90
17948;DHT22;9099;47.958;11.366;2022-09-03T14:05:23;24.70;99.90
17948;DHT22;9099;47.958;11.366;2022-09-03T14:08:13;23.70;99.90
17948;DHT22;9099;47.958;11.366;2022-09-03T14:10:53;21.90;99.90
17948;DHT22;9099;47.958;11.366;2022-09-03T14:13:29;20.40;99.90
17948;DHT22;9099;47.958;11.366;2022-09-03T14:16:03;19.30;99.90
17948;DHT22;9099;47.958;11.366;2022-09-03T14:18:40;18.70;99.90
17948;DHT22;9099;47.958;11.366;2022-09-03T14:21:13;18.40;99.90
17948;DHT22;9099;47.958;11.366;2022-09-03T14:23:46;18.10;99.90
17948;DHT22;9099;47.958;11.366;2022-09-03T14:26:17;17.80;99.90
17948;DHT22;9099;47.958;11.366;2022-09-03T14:28:48;17.80;99.90
17948;DHT22;9099;47.958;11.366;2022-09-03T14:31:24;17.70;99.90
17948;DHT22;9099;47.958;11.366;2022-09-03T14:33:59;17.60;99.90
17948;DHT22;9099;47.958;11.366;2022-09-03T14:36:31;17.70;99.90
17948;DHT22;9099;47.958;11.366;2022-09-03T14:39:19;17.80;99.90
17948;DHT22;9099;47.958;11.366;2022-09-03T14:45:42;17.80;99.90
17948;DHT22;9099;47.958;11.366;2022-09-03T14:48:49;17.70;99.90
17948;DHT22;9099;47.958;11.366;2022-09-03T14:51:30;17.70;99.90
17948;DHT22;9099;47.958;11.366;2022-09-03T14:54:43;17.80;99.90
17948;DHT22;9099;47.958;11.366;2022-09-03T14:57:24;17.70;99.90
17948;DHT22;9099;47.958;11.366;2022-09-03T15:00:04;17.80;99.90
17948;DHT22;9099;47.958;11.366;2022-09-03T15:03:07;17.80;99.90
17948;DHT22;9099;47.958;11.366;2022-09-03T15:05:56;17.70;99.90
17948;DHT22;9099;47.958;11.366;2022-09-03T15:08:39;17.70;99.90
17948;DHT22;9099;47.958;11.366;2022-09-03T15:11:15;17.80;99.90
17948;DHT22;9099;47.958;11.366;2022-09-03T15:13:46;17.90;99.90
17948;DHT22;9099;47.958;11.366;2022-09-03T15:16:26;17.80;99.90
17948;DHT22;9099;47.958;11.366;2022-09-03T15:19:14;17.90;99.90
17948;DHT22;9099;47.958;11.366;2022-09-03T15:21:55;17.80;99.90
17948;DHT22;9099;47.958;11.366;2022-09-03T15:24:35;17.80;99.90
17948;DHT22;9099;47.958;11.366;2022-09-03T15:27:11;17.80;99.90
17948;DHT22;9099;47.958;11.366;2022-09-03T15:29:48;17.80;99.90
17948;DHT22;9099;47.958;11.366;2022-09-03T15:32:35;17.70;99.90
17948;DHT22;9099;47.958;11.366;2022-09-03T15:35:07;17.70;99.90
17948;DHT22;9099;47.958;11.366;2022-09-03T15:37:47;17.60;99.90
17948;DHT22;9099;47.958;11.366;2022-09-03T15:40:24;17.60;99.90
17948;DHT22;9099;47.958;11.366;2022-09-03T15:42:57;17.60;99.90
17948;DHT22;9099;47.958;11.366;2022-09-03T15:45:33;17.60;99.90
17948;DHT22;9099;47.958;11.366;2022-09-03T15:48:12;17.50;99.90
17948;DHT22;9099;47.958;11.366;2022-09-03T15:50:51;17.60;99.90
17948;DHT22;9099;47.958;11.366;2022-09-03T15:53:27;17.80;99.90
17948;DHT22;9099;47.958;11.366;2022-09-03T15:56:05;18.00;99.90
17948;DHT22;9099;47.958;11.366;2022-09-03T15:58:35;18.10;99.90
17948;DHT22;9099;47.958;11.366;2022-09-03T16:01:10;18.20;99.90
17948;DHT22;9099;47.958;11.366;2022-09-03T16:03:54;18.10;99.90
17948;DHT22;9099;47.958;11.366;2022-09-03T16:06:29;18.20;99.90
17948;DHT22;9099;47.958;11.366;2022-09-03T16:09:07;18.10;99.90
17948;DHT22;9099;47.958;11.366;2022-09-03T16:11:39;18.00;99.90
17948;DHT22;9099;47.958;11.366;2022-09-03T16:14:15;18.00;99.90
17948;DHT22;9099;47.958;11.366;2022-09-03T16:16:52;18.00;99.90